createdAt,value
2018-05-10T00:00:50.243Z,11.73
2018-05-10T00:02:50.367Z,11.71
2018-05-10T00:04:50.817Z,11.69
2018-05-10T00:06:50.107Z,11.62
2018-05-10T00:08:50.273Z,11.59
2018-05-10T00:10:50.423Z,11.63
2018-05-10T00:12:50.516Z,11.61
2018-05-10T00:14:50.654Z,11.59
2018-05-10T00:16:49.946Z,11.52
2018-05-10T00:18:50.061Z,11.54
2018-05-10T00:20:50.285Z,11.52
2018-05-10T00:22:50.512Z,11.45
2018-05-10T00:24:50.708Z,11.44
2018-05-10T00:26:50.111Z,11.42
2018-05-10T00:28:50.351Z,11.35
2018-05-10T00:30:50.518Z,11.33
2018-05-10T00:32:50.638Z,11.31
2018-05-10T00:34:49.954Z,11.25
2018-05-10T00:36:50.279Z,11.20
2018-05-10T00:38:50.473Z,11.18
2018-05-10T00:40:50.618Z,11.13
2018-05-10T00:42:50.710Z,11.10
2018-05-10T00:44:50.836Z,11.04
2018-05-10T00:46:50.089Z,10.99
2018-05-10T00:48:50.237Z,10.99
2018-05-10T00:50:50.427Z,11.00
2018-05-10T00:52:50.544Z,10.99
2018-05-10T00:54:50.653Z,11.01
2018-05-10T00:56:49.948Z,10.96
2018-05-10T00:58:50.076Z,10.96
2018-05-10T01:00:50.191Z,10.95
2018-05-10T01:02:50.349Z,10.95
2018-05-10T01:04:51.226Z,10.98
2018-05-10T01:06:50.663Z,11.00
2018-05-10T01:08:50.795Z,11.03
2018-05-10T01:10:49.945Z,11.04
2018-05-10T01:12:50.185Z,11.07
2018-05-10T01:14:50.281Z,11.08
2018-05-10T01:16:50.602Z,11.05
2018-05-10T01:18:50.815Z,11.05
2018-05-10T01:20:50.115Z,10.98
2018-05-10T01:22:50.339Z,10.95
2018-05-10T01:24:50.478Z,10.93
2018-05-10T01:26:50.858Z,10.88
2018-05-10T01:28:49.933Z,10.83
2018-05-10T01:30:50.010Z,10.81
2018-05-10T01:32:50.239Z,10.80
2018-05-10T01:34:50.540Z,10.74
2018-05-10T01:36:50.743Z,10.74
2018-05-10T01:38:49.917Z,10.67
2018-05-10T01:40:50.075Z,10.62
2018-05-10T01:42:50.212Z,10.62
2018-05-10T01:44:50.439Z,10.55
2018-05-10T01:46:50.713Z,10.52
2018-05-10T01:48:50.834Z,10.47
2018-05-10T01:50:49.945Z,10.45
2018-05-10T01:52:50.084Z,10.40
2018-05-10T01:54:50.274Z,10.38
2018-05-10T01:56:50.516Z,10.35
2018-05-10T01:58:50.696Z,10.33
2018-05-10T02:00:50.918Z,10.26
2018-05-10T02:02:50.145Z,10.19
2018-05-10T02:04:50.441Z,10.16
2018-05-10T02:06:50.821Z,10.16
2018-05-10T02:08:50.863Z,10.15
2018-05-10T02:10:50.066Z,10.11
2018-05-10T02:12:50.240Z,10.09
2018-05-10T02:14:51.099Z,10.09
2018-05-10T02:16:50.729Z,10.10
2018-05-10T02:18:50.838Z,10.09
2018-05-10T02:20:50.000Z,10.02
2018-05-10T02:22:50.060Z,9.96
2018-05-10T02:24:50.258Z,9.93
2018-05-10T02:26:50.525Z,9.88
2018-05-10T02:28:50.668Z,9.86
2018-05-10T02:30:50.794Z,9.78
2018-05-10T02:32:49.975Z,9.78
2018-05-10T02:34:50.379Z,9.73
2018-05-10T02:36:50.719Z,9.70
2018-05-10T02:38:50.893Z,9.69
2018-05-10T02:40:50.048Z,9.66
2018-05-10T02:42:50.278Z,9.62
2018-05-10T02:44:50.696Z,9.61
2018-05-10T02:46:50.164Z,9.59
2018-05-10T02:48:50.261Z,9.54
2018-05-10T02:50:50.417Z,9.53
2018-05-10T02:52:50.670Z,9.48
2018-05-10T02:54:50.864Z,9.50
2018-05-10T02:56:50.206Z,9.51
2018-05-10T02:58:50.409Z,9.47
2018-05-10T03:00:50.624Z,9.46
2018-05-10T03:02:50.792Z,9.44
2018-05-10T03:04:50.314Z,9.45
2018-05-10T03:06:50.609Z,9.42
2018-05-10T03:08:50.755Z,9.40
2018-05-10T03:10:49.945Z,9.38
2018-05-10T03:12:50.176Z,9.37
2018-05-10T03:14:50.472Z,9.36
2018-05-10T03:16:50.738Z,9.34
2018-05-10T03:18:49.883Z,9.33
2018-05-10T03:20:49.998Z,9.25
2018-05-10T03:22:50.088Z,9.23
2018-05-10T03:24:50.212Z,9.23
2018-05-10T03:26:50.393Z,9.25
2018-05-10T03:28:50.569Z,9.25
2018-05-10T03:30:50.771Z,9.21
2018-05-10T03:32:49.985Z,9.23
2018-05-10T03:34:50.369Z,9.24
2018-05-10T03:36:50.629Z,9.25
2018-05-10T03:38:50.789Z,9.24
2018-05-10T03:40:50.928Z,9.27
2018-05-10T03:42:50.163Z,9.26
2018-05-10T03:44:50.281Z,9.23
2018-05-10T03:46:50.483Z,9.22
2018-05-10T03:48:50.639Z,9.25
2018-05-10T03:50:50.820Z,9.25
2018-05-10T03:52:49.982Z,9.24
2018-05-10T03:54:50.098Z,9.26
2018-05-10T03:56:50.410Z,9.26
2018-05-10T03:58:50.528Z,9.31
2018-05-10T04:00:50.651Z,9.34
2018-05-10T04:02:50.792Z,9.36
2018-05-10T04:04:50.174Z,9.39
2018-05-10T04:06:50.434Z,9.41
2018-05-10T04:08:50.196Z,9.44
2018-05-10T04:10:50.291Z,9.45
2018-05-10T04:12:50.637Z,9.47
2018-05-10T04:14:49.934Z,9.49
2018-05-10T04:16:50.197Z,9.56
2018-05-10T04:18:50.332Z,9.61
2018-05-10T04:20:50.445Z,9.64
2018-05-10T04:22:50.545Z,9.73
2018-05-10T04:24:50.727Z,9.78
2018-05-10T04:26:50.578Z,9.86
2018-05-10T04:28:50.762Z,9.91
2018-05-10T04:30:49.962Z,10.04
2018-05-10T04:32:50.185Z,10.14
2018-05-10T04:34:50.525Z,10.14
2018-05-10T04:36:50.884Z,10.44
2018-05-10T04:38:50.015Z,10.44
2018-05-10T04:40:50.172Z,10.72
2018-05-10T04:42:50.419Z,10.97
2018-05-10T04:44:50.635Z,11.06
2018-05-10T04:46:49.960Z,11.32
2018-05-10T04:48:50.104Z,11.40
2018-05-10T04:50:50.257Z,11.64
2018-05-10T04:52:50.431Z,11.75
2018-05-10T04:54:51.038Z,11.97
2018-05-10T04:56:50.481Z,12.22
2018-05-10T04:58:50.589Z,12.29
2018-05-10T05:00:50.746Z,12.46
2018-05-10T05:02:49.993Z,12.57
2018-05-10T05:04:50.475Z,12.64
2018-05-10T05:06:50.792Z,12.92
2018-05-10T05:08:50.340Z,13.02
2018-05-10T05:10:50.651Z,13.17
2018-05-10T05:12:50.880Z,13.42
2018-05-10T05:14:50.078Z,13.61
2018-05-10T05:16:50.433Z,13.75
2018-05-10T05:18:50.563Z,13.80
2018-05-10T05:20:50.796Z,13.85
2018-05-10T05:22:49.950Z,13.85
2018-05-10T05:24:50.048Z,13.81
2018-05-10T05:26:50.618Z,13.85
2018-05-10T05:28:49.889Z,13.88
2018-05-10T05:30:50.019Z,13.96
2018-05-10T05:32:50.186Z,14.02
2018-05-10T05:34:50.461Z,14.17
2018-05-10T05:36:50.283Z,14.23
2018-05-10T05:38:50.407Z,14.44
2018-05-10T05:40:50.564Z,14.59
2018-05-10T05:42:50.814Z,14.6
2018-05-10T05:44:49.964Z,14.6
2018-05-10T05:46:50.163Z,14.73
2018-05-10T05:48:50.304Z,14.67
2018-05-10T05:50:50.467Z,14.65
2018-05-10T05:52:50.669Z,14.63
2018-05-10T05:54:50.860Z,14.50
2018-05-10T05:56:50.171Z,14.43
2018-05-10T05:58:50.440Z,14.41
2018-05-10T06:00:50.991Z,14.47
2018-05-10T06:02:50.195Z,14.55
2018-05-10T06:04:50.622Z,14.75
2018-05-10T06:06:49.942Z,14.83
2018-05-10T06:08:50.118Z,15.06
2018-05-10T06:10:50.241Z,15.11
2018-05-10T06:12:50.440Z,15.24
2018-05-10T06:14:50.604Z,15.35
2018-05-10T06:16:49.873Z,15.4
2018-05-10T06:18:50.001Z,15.6
2018-05-10T06:20:50.177Z,15.6
2018-05-10T06:22:50.401Z,15.6
2018-05-10T06:24:51.384Z,15.7
2018-05-10T06:26:50.028Z,15.8
2018-05-10T06:28:50.229Z,15.9
2018-05-10T06:30:50.348Z,15.9
2018-05-10T06:32:50.513Z,16.0
2018-05-10T06:34:50.934Z,16.1
2018-05-10T06:36:50.258Z,16.2
2018-05-10T06:38:50.395Z,16.2
2018-05-10T06:40:50.555Z,16.2
2018-05-10T06:42:50.730Z,16.3
2018-05-10T06:52:49.765Z,16.7
2018-05-10T06:54:49.913Z,16.8
2018-05-10T06:56:50.267Z,16.9
2018-05-10T06:58:50.415Z,16.9
2018-05-10T07:00:50.548Z,17.0
2018-05-10T07:02:50.774Z,17.0
2018-05-10T07:04:50.128Z,17.2
2018-05-10T07:06:50.370Z,17.2
2018-05-10T07:08:50.484Z,17.3
2018-05-10T07:10:50.669Z,17.3
2018-05-10T07:12:50.885Z,17.4
2018-05-10T07:14:50.135Z,17.5
2018-05-10T07:16:50.430Z,17.5
2018-05-10T07:18:50.607Z,17.5
2018-05-10T07:20:50.798Z,17.6
2018-05-10T07:22:49.938Z,17.8
2018-05-10T07:24:50.159Z,17.9
2018-05-10T07:26:50.390Z,17.9
2018-05-10T07:28:50.537Z,18.0
2018-05-10T07:30:50.727Z,18.2
2018-05-10T07:32:50.053Z,18.2
2018-05-10T07:34:50.436Z,18.3
2018-05-10T07:36:50.820Z,18.3
2018-05-10T07:38:50.045Z,18.4
2018-05-10T07:40:50.186Z,18.5
2018-05-10T07:42:50.326Z,18.6
2018-05-10T07:44:50.448Z,18.7
2018-05-10T07:46:50.707Z,18.7
2018-05-10T07:48:50.819Z,18.7
2018-05-10T07:50:49.972Z,18.8
2018-05-10T07:52:50.181Z,18.9
2018-05-10T07:54:50.277Z,18.9
2018-05-10T07:56:50.601Z,19.0
2018-05-10T07:58:50.683Z,19.1
2018-05-10T08:00:50.868Z,19.2
2018-05-10T08:02:49.991Z,19.4
2018-05-10T08:04:50.303Z,19.4
2018-05-10T08:06:50.667Z,19.5
2018-05-10T08:08:50.821Z,19.5
2018-05-10T08:10:50.015Z,19.6
2018-05-10T08:12:50.130Z,19.6
2018-05-10T08:14:50.243Z,19.7
2018-05-10T08:16:50.588Z,19.8
2018-05-10T08:18:50.717Z,19.9
2018-05-10T08:20:50.854Z,20.0
2018-05-10T08:22:50.173Z,20.1
2018-05-10T08:24:50.252Z,20.1
2018-05-10T08:26:50.577Z,20.2
2018-05-10T08:28:50.727Z,20.3
2018-05-10T08:30:50.876Z,20.3
2018-05-10T08:32:50.006Z,20.3
2018-05-10T08:34:50.359Z,20.4
2018-05-10T08:36:51.461Z,20.6
2018-05-10T08:38:50.886Z,20.8
2018-05-10T08:40:50.010Z,20.9
2018-05-10T08:42:50.211Z,21.0
2018-05-10T08:44:50.328Z,21.0
2018-05-10T08:46:50.565Z,21.1
2018-05-10T08:48:50.683Z,21.2
2018-05-10T08:50:49.884Z,21.3
2018-05-10T08:52:49.951Z,21.4
2018-05-10T08:54:50.014Z,21.4
2018-05-10T08:56:50.342Z,21.5
2018-05-10T08:58:50.454Z,21.6
2018-05-10T09:00:50.621Z,21.6
2018-05-10T09:02:50.755Z,21.7
2018-05-10T09:04:50.191Z,21.7
2018-05-10T09:06:50.406Z,21.9
2018-05-10T09:08:50.514Z,22.0
2018-05-10T09:10:50.617Z,22.0
2018-05-10T09:12:50.752Z,22.2
2018-05-10T09:14:49.880Z,22.4
2018-05-10T09:16:50.053Z,22.6
2018-05-10T09:18:50.225Z,22.8
2018-05-10T09:20:50.344Z,22.8
2018-05-10T09:22:50.615Z,23.0
2018-05-10T09:24:50.750Z,23.1
2018-05-10T09:26:49.981Z,23.2
2018-05-10T09:28:50.173Z,23.4
2018-05-10T09:30:50.377Z,23.4
2018-05-10T09:32:50.562Z,23.5
2018-05-10T09:34:49.898Z,23.6
2018-05-10T09:36:50.229Z,23.7
2018-05-10T09:38:50.394Z,23.8
2018-05-10T09:40:50.512Z,23.8
2018-05-10T09:42:50.603Z,23.9
2018-05-10T09:44:51.092Z,24.1
2018-05-10T09:46:50.343Z,24.1
2018-05-10T09:48:50.457Z,24.1
2018-05-10T09:50:50.592Z,24.2
2018-05-10T09:52:50.668Z,24.3
2018-05-10T09:54:50.825Z,24.3
2018-05-10T09:56:50.058Z,24.2
2018-05-10T09:58:50.228Z,24.2
2018-05-10T10:00:50.311Z,24.2
2018-05-10T10:02:50.417Z,24.2
2018-05-10T10:04:50.854Z,24.3
2018-05-10T10:06:50.066Z,24.3
2018-05-10T10:08:50.189Z,24.3
2018-05-10T10:10:50.303Z,24.3
2018-05-10T10:12:50.543Z,24.4
2018-05-10T10:14:50.655Z,24.4
2018-05-10T10:16:49.914Z,24.4
2018-05-10T10:18:49.991Z,24.4
2018-05-10T10:20:50.109Z,24.4
2018-05-10T10:22:50.246Z,24.4
2018-05-10T10:24:50.446Z,24.6
2018-05-10T10:26:50.716Z,24.6
2018-05-10T10:28:50.890Z,24.6
2018-05-10T10:30:49.984Z,24.7
2018-05-10T10:32:50.061Z,24.7
2018-05-10T10:34:50.380Z,24.8
2018-05-10T10:36:50.649Z,24.8
2018-05-10T10:38:50.854Z,24.8
2018-05-10T10:40:49.960Z,24.8
2018-05-10T10:42:50.118Z,24.8
2018-05-10T10:44:50.258Z,24.9
2018-05-10T10:46:50.522Z,24.9
2018-05-10T10:48:50.825Z,25.0
2018-05-10T10:50:49.910Z,25.0
2018-05-10T10:52:50.233Z,25.1
2018-05-10T10:54:50.355Z,25.0
2018-05-10T10:56:50.630Z,25.0
2018-05-10T10:58:50.806Z,25.0
2018-05-10T11:00:49.920Z,25.0
2018-05-10T11:02:50.068Z,24.9
2018-05-10T11:04:50.386Z,25.0
2018-05-10T11:06:50.575Z,25.0
2018-05-10T11:08:50.996Z,25.2
2018-05-10T11:10:50.265Z,25.4
2018-05-10T11:12:50.451Z,25.6
2018-05-10T11:14:50.586Z,25.8
2018-05-10T11:16:49.894Z,25.8
2018-05-10T11:18:50.008Z,25.9
2018-05-10T11:20:50.551Z,26.0
2018-05-10T11:22:50.758Z,26.0
2018-05-10T11:24:50.869Z,26.0
2018-05-10T11:26:50.097Z,26.0
2018-05-10T11:28:50.176Z,26.0
2018-05-10T11:30:50.289Z,25.33
2018-05-10T11:32:50.753Z,24.40
2018-05-10T11:34:50.134Z,24.03
2018-05-10T11:36:50.345Z,23.74
2018-05-10T11:38:50.512Z,22.66
2018-05-10T11:40:50.657Z,22.34
2018-05-10T11:42:49.915Z,21.85
2018-05-10T11:44:50.018Z,21.73
2018-05-10T11:46:50.308Z,21.97
2018-05-10T11:48:50.453Z,21.98
2018-05-10T11:50:50.564Z,22.31
2018-05-10T11:52:50.693Z,22.40
2018-05-10T11:54:50.799Z,22.56
2018-05-10T11:56:50.095Z,22.56
2018-05-10T11:58:50.229Z,22.82
2018-05-10T12:00:50.345Z,22.59
2018-05-10T12:02:50.471Z,22.68
2018-05-10T12:04:50.020Z,22.93
2018-05-10T12:06:50.214Z,22.92
2018-05-10T12:08:50.338Z,22.79
2018-05-10T12:10:50.491Z,22.76
2018-05-10T12:12:50.671Z,22.71
2018-05-10T12:14:50.753Z,22.67
2018-05-10T12:16:50.237Z,22.57
2018-05-10T12:18:50.322Z,22.35
2018-05-10T12:20:50.488Z,22.35
2018-05-10T12:22:50.641Z,22.46
2018-05-10T12:24:50.806Z,22.41
2018-05-10T12:26:50.183Z,22.13
2018-05-10T12:28:50.368Z,22.01
2018-05-10T12:30:50.463Z,21.77
2018-05-10T12:32:50.609Z,20.85
2018-05-10T12:34:49.945Z,20.85
2018-05-10T12:36:50.221Z,19.93
2018-05-10T12:38:50.310Z,19.67
2018-05-10T12:40:50.513Z,19.06
2018-05-10T12:42:49.908Z,18.85
2018-05-10T12:44:50.299Z,18.48
2018-05-10T12:46:50.540Z,18.18
2018-05-10T12:48:50.712Z,18.05
2018-05-10T12:50:50.864Z,17.87
2018-05-10T12:52:50.017Z,17.32
2018-05-10T12:54:50.189Z,17.32
2018-05-10T12:56:50.472Z,16.79
2018-05-10T12:58:50.577Z,16.66
2018-05-10T13:00:51.337Z,16.35
2018-05-10T13:02:51.008Z,16.35
2018-05-10T13:04:50.579Z,16.01
2018-05-10T13:06:51.151Z,15.76
2018-05-10T13:08:50.436Z,15.08
2018-05-10T13:10:50.611Z,14.67
2018-05-10T13:12:50.834Z,14.16
2018-05-10T13:14:49.933Z,13.78
2018-05-10T13:16:50.211Z,13.69
2018-05-10T13:18:50.306Z,13.48
2018-05-10T13:20:50.494Z,13.35
2018-05-10T13:22:50.621Z,13.28
2018-05-10T13:24:50.755Z,13.27
2018-05-10T13:26:49.946Z,13.19
2018-05-10T13:28:50.409Z,13.17
2018-05-10T13:30:50.584Z,13.13
2018-05-10T13:32:50.724Z,13.10
2018-05-10T13:34:50.159Z,13.10
2018-05-10T13:36:50.397Z,13.04
2018-05-10T13:38:50.510Z,12.95
2018-05-10T13:40:50.541Z,12.92
2018-05-10T13:42:50.695Z,12.89
2018-05-10T13:44:50.850Z,12.90
2018-05-10T13:46:50.057Z,12.90
2018-05-10T13:48:50.247Z,12.90
2018-05-10T13:50:50.373Z,12.90
2018-05-10T13:52:50.498Z,12.92
2018-05-10T13:54:50.604Z,12.96
2018-05-10T13:56:50.810Z,12.97
2018-05-10T13:58:49.964Z,12.98
2018-05-10T14:00:50.083Z,13.00
2018-05-10T14:02:50.190Z,13.00
2018-05-10T14:04:50.585Z,13.03
2018-05-10T14:06:50.728Z,13.03
2018-05-10T14:08:49.896Z,13.06
2018-05-10T14:10:50.247Z,13.08
2018-05-10T14:12:50.470Z,13.09
2018-05-10T14:14:50.686Z,13.13
2018-05-10T14:16:49.952Z,13.17
2018-05-10T14:18:50.138Z,13.20
2018-05-10T14:20:50.295Z,13.20
2018-05-10T14:22:50.399Z,13.21
2018-05-10T14:24:50.535Z,13.21
2018-05-10T14:26:50.811Z,13.20
2018-05-10T14:28:50.862Z,13.17
2018-05-10T14:30:49.968Z,13.16
2018-05-10T14:32:50.274Z,13.16
2018-05-10T14:34:50.722Z,13.16
2018-05-10T14:36:50.011Z,13.21
2018-05-10T14:38:50.145Z,13.22
2018-05-10T14:40:50.257Z,13.27
2018-05-10T14:42:50.393Z,13.28
2018-05-10T14:44:50.528Z,13.35
2018-05-10T14:46:50.754Z,13.39
2018-05-10T14:48:50.882Z,13.52
2018-05-10T14:50:50.097Z,13.69
2018-05-10T14:52:50.181Z,13.73
2018-05-10T14:54:50.344Z,13.79
2018-05-10T14:56:50.615Z,13.86
2018-05-10T14:58:50.737Z,13.85
2018-05-10T15:00:49.883Z,13.83
2018-05-10T15:02:50.028Z,13.82
2018-05-10T15:04:50.380Z,13.84
2018-05-10T15:06:50.578Z,13.87
2018-05-10T15:08:50.687Z,13.88
2018-05-10T15:10:50.836Z,13.87
2018-05-10T15:12:50.060Z,13.90
2018-05-10T15:14:50.258Z,13.95
2018-05-10T15:16:50.437Z,14.05
2018-05-10T15:18:50.568Z,14.14
2018-05-10T15:20:50.685Z,14.19
2018-05-10T15:22:50.886Z,14.31
2018-05-10T15:24:50.021Z,14.34
2018-05-10T15:26:50.344Z,14.43
2018-05-10T15:28:50.465Z,14.50
2018-05-10T15:30:50.657Z,14.51
2018-05-10T15:32:50.761Z,14.51
2018-05-10T15:34:50.123Z,14.51
2018-05-10T15:36:50.352Z,14.32
2018-05-10T15:38:50.486Z,14.32
2018-05-10T15:40:50.635Z,14.30
2018-05-10T15:42:50.752Z,14.23
2018-05-10T15:44:50.834Z,14.19
2018-05-10T15:46:50.081Z,14.16
2018-05-10T15:48:50.162Z,14.16
2018-05-10T15:50:50.348Z,14.15
2018-05-10T15:52:50.487Z,14.17
2018-05-10T15:54:50.663Z,14.24
2018-05-10T15:56:50.002Z,14.25
2018-05-10T15:58:50.144Z,14.28
2018-05-10T16:00:50.225Z,14.34
2018-05-10T16:02:50.389Z,14.43
2018-05-10T16:04:50.699Z,14.51
2018-05-10T16:06:49.977Z,14.63
2018-05-10T16:08:50.146Z,14.68
2018-05-10T16:10:50.288Z,14.82
2018-05-10T16:12:50.505Z,14.96
2018-05-10T16:14:50.632Z,14.96
2018-05-10T16:16:49.934Z,15.19
2018-05-10T16:18:50.027Z,15.31
2018-05-10T16:20:50.240Z,15.40
2018-05-10T16:22:50.413Z,15.40
2018-05-10T16:24:50.623Z,15.37
2018-05-10T16:26:49.914Z,15.35
2018-05-10T16:28:50.125Z,15.30
2018-05-10T16:30:50.294Z,15.29
2018-05-10T16:32:50.845Z,15.29
2018-05-10T16:34:50.296Z,15.25
2018-05-10T16:36:50.546Z,15.14
2018-05-10T16:38:50.694Z,15.04
2018-05-10T16:40:50.810Z,14.92
2018-05-10T16:42:49.955Z,14.91
2018-05-10T16:44:50.225Z,14.83
2018-05-10T16:46:50.547Z,14.80
2018-05-10T16:48:50.627Z,14.78
2018-05-10T16:50:50.850Z,14.74
2018-05-10T16:52:49.972Z,14.71
2018-05-10T16:54:50.137Z,14.71
2018-05-10T16:56:50.395Z,14.71
2018-05-10T16:58:50.576Z,14.68
2018-05-10T17:00:50.753Z,14.64
2018-05-10T17:02:49.917Z,14.62
2018-05-10T17:04:50.191Z,14.59
2018-05-10T17:06:50.385Z,14.59
2018-05-10T17:08:50.608Z,14.61
2018-05-10T17:10:50.728Z,14.62
2018-05-10T17:12:50.869Z,14.60
2018-05-10T17:14:49.997Z,14.56
2018-05-10T17:16:50.201Z,14.53
2018-05-10T17:18:50.361Z,14.50
2018-05-10T17:20:50.500Z,14.50
2018-05-10T17:22:50.644Z,14.48
2018-05-10T17:24:50.765Z,14.47
2018-05-10T17:26:49.965Z,14.45
2018-05-10T17:28:50.117Z,14.45
2018-05-10T17:30:50.545Z,14.45
2018-05-10T17:32:50.678Z,14.44
2018-05-10T17:34:50.027Z,14.43
2018-05-10T17:36:50.333Z,14.43
2018-05-10T17:38:50.518Z,14.48
2018-05-10T17:40:50.616Z,14.46
2018-05-10T17:42:49.888Z,14.42
2018-05-10T17:44:50.035Z,14.41
2018-05-10T17:46:50.348Z,14.43
2018-05-10T17:48:50.519Z,14.45
2018-05-10T17:50:50.744Z,14.45
2018-05-10T17:52:49.923Z,14.36
2018-05-10T17:54:50.131Z,14.31
2018-05-10T17:56:50.402Z,14.23
2018-05-10T17:58:50.547Z,14.17
2018-05-10T18:00:50.901Z,14.09
2018-05-10T18:02:50.070Z,14.03
2018-05-10T18:04:50.433Z,14.02
2018-05-10T18:06:50.691Z,14.00
2018-05-10T18:08:50.805Z,13.96
2018-05-10T18:10:49.925Z,13.95
2018-05-10T18:12:50.081Z,13.93
2018-05-10T18:14:50.310Z,13.92
2018-05-10T18:16:50.597Z,13.91
2018-05-10T18:18:50.755Z,13.90
2018-05-10T18:20:49.962Z,13.88
2018-05-10T18:22:50.077Z,13.88
2018-05-10T18:24:50.195Z,13.79
2018-05-10T18:26:50.435Z,13.77
2018-05-10T18:28:50.588Z,13.74
2018-05-10T18:30:50.787Z,13.73
2018-05-10T18:32:49.921Z,13.73
2018-05-10T18:34:50.306Z,13.74
2018-05-10T18:36:50.536Z,13.74
2018-05-10T18:38:50.653Z,13.75
2018-05-10T18:40:51.180Z,13.75
2018-05-10T18:42:50.423Z,13.74
2018-05-10T18:44:50.547Z,13.74
2018-05-10T18:46:50.834Z,13.72
2018-05-10T18:48:49.937Z,13.71
2018-05-10T18:50:50.079Z,13.71
2018-05-10T18:52:50.262Z,13.70
2018-05-10T18:54:51.884Z,13.69
2018-05-10T18:56:50.627Z,13.65
2018-05-10T18:58:50.812Z,13.63
2018-05-10T19:00:49.962Z,13.59
2018-05-10T19:02:50.074Z,13.56
2018-05-10T19:04:50.492Z,13.56
2018-05-10T19:06:50.791Z,13.55
2018-05-10T19:08:49.918Z,13.53
2018-05-10T19:10:50.058Z,13.53
2018-05-10T19:12:50.223Z,13.52
2018-05-10T19:14:50.359Z,13.53
2018-05-10T19:16:50.620Z,13.51
2018-05-10T19:18:50.779Z,13.51
2018-05-10T19:20:51.035Z,13.51
2018-05-10T19:22:50.243Z,13.50
2018-05-10T19:24:50.391Z,13.50
2018-05-10T19:26:50.680Z,13.50
2018-05-10T19:28:50.808Z,13.50
2018-05-10T19:30:49.960Z,13.51
2018-05-10T19:32:50.131Z,13.52
2018-05-10T19:34:50.504Z,13.52
2018-05-10T19:36:50.838Z,13.53
2018-05-10T19:38:49.960Z,13.53
2018-05-10T19:40:50.120Z,13.52
2018-05-10T19:42:50.229Z,13.51
2018-05-10T19:44:50.373Z,13.48
2018-05-10T19:46:50.586Z,13.46
2018-05-10T19:48:50.677Z,13.45
2018-05-10T19:50:50.792Z,13.44
2018-05-10T19:52:49.989Z,13.42
2018-05-10T19:54:50.216Z,13.35
2018-05-10T19:56:50.912Z,13.32
2018-05-10T19:58:50.120Z,13.28
2018-05-10T20:00:50.289Z,13.24
2018-05-10T20:02:50.495Z,13.22
2018-05-10T20:04:50.855Z,13.16
2018-05-10T20:06:50.230Z,13.13
2018-05-10T20:08:50.384Z,13.05
2018-05-10T20:10:50.566Z,12.98
2018-05-10T20:12:50.720Z,12.87
2018-05-10T20:14:50.853Z,12.72
2018-05-10T20:16:50.532Z,12.66
2018-05-10T20:18:50.733Z,12.60
2018-05-10T20:20:50.901Z,12.50
2018-05-10T20:22:50.116Z,12.37
2018-05-10T20:24:50.319Z,12.32
2018-05-10T20:26:50.638Z,12.25
2018-05-10T20:28:50.752Z,12.22
2018-05-10T20:30:49.901Z,12.14
2018-05-10T20:32:50.183Z,12.06
2018-05-10T20:34:50.641Z,12.04
2018-05-10T20:36:49.936Z,11.99
2018-05-10T20:38:50.108Z,11.96
2018-05-10T20:40:50.265Z,11.93
2018-05-10T20:42:50.500Z,11.92
2018-05-10T20:44:51.369Z,11.90
2018-05-10T20:46:50.721Z,11.88
2018-05-10T20:48:50.869Z,11.86
2018-05-10T20:50:50.241Z,11.82
2018-05-10T20:52:50.471Z,11.81
2018-05-10T20:54:50.668Z,11.79
2018-05-10T20:56:49.991Z,11.77
2018-05-10T20:58:50.130Z,11.77
2018-05-10T21:00:50.312Z,11.78
2018-05-10T21:02:50.474Z,11.79
2018-05-10T21:04:50.766Z,11.82
2018-05-10T21:06:50.196Z,11.82
2018-05-10T21:08:50.342Z,11.80
2018-05-10T21:10:50.433Z,11.80
2018-05-10T21:12:50.534Z,11.79
2018-05-10T21:14:50.679Z,11.79
2018-05-10T21:16:49.983Z,11.81
2018-05-10T21:18:50.149Z,11.83
2018-05-10T21:20:50.295Z,11.83
2018-05-10T21:22:50.413Z,11.84
2018-05-10T21:24:50.625Z,11.85
2018-05-10T21:26:50.885Z,11.83
2018-05-10T21:28:50.053Z,11.82
2018-05-10T21:30:50.260Z,11.79
2018-05-10T21:32:50.415Z,11.76
2018-05-10T21:34:50.941Z,11.73
2018-05-10T21:36:50.201Z,11.72
2018-05-10T21:38:50.293Z,11.74
2018-05-10T21:40:50.604Z,11.74
2018-05-10T21:42:51.079Z,11.75
2018-05-10T21:44:51.349Z,11.75
2018-05-10T21:46:49.886Z,11.77
2018-05-10T21:48:50.083Z,11.79
2018-05-10T21:50:50.208Z,11.78
2018-05-10T21:52:50.436Z,11.76
2018-05-10T21:54:50.900Z,11.76
2018-05-10T21:56:50.126Z,11.78
2018-05-10T21:58:50.262Z,11.78
2018-05-10T22:00:50.519Z,11.77
2018-05-10T22:02:50.727Z,11.75
2018-05-10T22:04:50.002Z,11.73
2018-05-10T22:06:50.241Z,11.67
2018-05-10T22:08:50.674Z,11.61
2018-05-10T22:10:50.857Z,11.54
2018-05-10T22:12:50.093Z,11.49
2018-05-10T22:14:50.245Z,11.48
2018-05-10T22:16:50.516Z,11.48
2018-05-10T22:18:50.651Z,11.49
2018-05-10T22:20:50.921Z,11.49
2018-05-10T22:22:50.023Z,11.45
2018-05-10T22:24:50.232Z,11.46
2018-05-10T22:26:50.549Z,11.45
2018-05-10T22:28:50.757Z,11.46
2018-05-10T22:30:50.873Z,11.45
2018-05-10T22:32:50.027Z,11.46
2018-05-10T22:34:50.375Z,11.46
2018-05-10T22:36:50.594Z,11.46
2018-05-10T22:38:50.705Z,11.45
2018-05-10T22:40:50.822Z,11.44
2018-05-10T22:42:49.935Z,11.42
2018-05-10T22:44:50.032Z,11.42
2018-05-10T22:46:50.341Z,11.42
2018-05-10T22:48:50.458Z,11.36
2018-05-10T22:50:50.643Z,11.36
2018-05-10T22:52:50.800Z,11.38
2018-05-10T22:54:49.996Z,11.39
2018-05-10T22:56:50.344Z,11.41
2018-05-10T22:58:50.531Z,11.41
2018-05-10T23:00:50.658Z,11.42
2018-05-10T23:02:50.834Z,11.44
2018-05-10T23:04:50.349Z,11.43
2018-05-10T23:06:50.551Z,11.43
2018-05-10T23:08:50.666Z,11.42
2018-05-10T23:10:50.787Z,11.40
2018-05-10T23:12:49.953Z,11.40
2018-05-10T23:14:50.116Z,11.40
2018-05-10T23:16:50.358Z,11.42
2018-05-10T23:18:50.495Z,11.42
2018-05-10T23:20:50.601Z,11.41
2018-05-10T23:22:50.819Z,11.40
2018-05-10T23:24:49.967Z,11.41
2018-05-10T23:26:50.264Z,11.41
2018-05-10T23:28:50.487Z,11.42
2018-05-10T23:30:50.623Z,11.42
2018-05-10T23:32:50.750Z,11.41
2018-05-10T23:34:50.076Z,11.42
2018-05-10T23:36:50.323Z,11.44
2018-05-10T23:38:50.446Z,11.43
2018-05-10T23:40:50.563Z,11.42
2018-05-10T23:42:50.761Z,11.40
2018-05-10T23:44:49.932Z,11.38
2018-05-10T23:46:50.161Z,11.38
2018-05-10T23:48:50.302Z,11.39
2018-05-10T23:50:50.480Z,11.39
2018-05-10T23:52:50.625Z,11.41
2018-05-10T23:54:50.827Z,11.43
2018-05-10T23:56:50.078Z,11.44
2018-05-10T23:58:50.230Z,11.46
